createdAt,value
2023-04-20T00:01:31.112Z,94400.88
2023-04-20T00:03:58.175Z,94381.94
2023-04-20T00:06:29.855Z,94381.94
2023-04-20T00:08:56.985Z,94388.56
2023-04-20T00:11:23.889Z,94385.28
2023-04-20T00:13:50.841Z,94391.47
2023-04-20T00:16:18.111Z,94392.69
2023-04-20T00:18:48.089Z,94376.78
2023-04-20T00:21:15.250Z,94366.91
2023-04-20T00:23:42.523Z,94357.75
2023-04-20T00:26:09.494Z,94356.78
2023-04-20T00:28:36.303Z,94357.75
2023-04-20T00:31:03.745Z,94348.72
2023-04-20T00:33:30.641Z,94357.03
2023-04-20T00:35:57.476Z,94348.88
2023-04-20T00:38:24.350Z,94350.13
2023-04-20T00:40:54.268Z,94354.69
2023-04-20T00:43:22.030Z,94354.19
2023-04-20T00:45:49.069Z,94347.84
2023-04-20T00:48:16.217Z,94338.91
2023-04-20T00:50:43.132Z,94336.69
2023-04-20T00:53:10.795Z,94337.38
2023-04-20T00:55:38.848Z,94334.94
2023-04-20T00:58:06.887Z,94326.75
2023-04-20T01:00:34.954Z,94321.59
2023-04-20T01:03:02.149Z,94323.31
2023-04-20T01:05:29.346Z,94317.00
2023-04-20T01:07:56.262Z,94310.44
2023-04-20T01:10:23.351Z,94298.34
2023-04-20T01:12:50.181Z,94304.13
2023-04-20T01:15:17.006Z,94285.94
2023-04-20T01:17:43.988Z,94299.38
2023-04-20T01:20:15.286Z,94292.97
2023-04-20T01:22:51.325Z,94301.91
2023-04-20T01:25:18.883Z,94309.88
2023-04-20T01:27:45.737Z,94301.09
2023-04-20T01:30:13.679Z,94295.69
2023-04-20T01:32:41.301Z,94292.25
2023-04-20T01:35:09.569Z,94293.88
2023-04-20T01:37:36.825Z,94283.47
2023-04-20T01:40:04.696Z,94279.38
2023-04-20T01:42:31.532Z,94288.81
2023-04-20T01:44:58.859Z,94276.03
2023-04-20T01:47:26.069Z,94260.16
2023-04-20T01:49:52.916Z,94265.88
2023-04-20T01:52:19.878Z,94256.00
2023-04-20T01:54:46.822Z,94238.09
2023-04-20T01:57:13.742Z,94246.72
2023-04-20T01:59:40.577Z,94252.00
2023-04-20T02:02:07.497Z,94244.56
2023-04-20T02:04:34.415Z,94248.13
2023-04-20T02:07:01.222Z,94241.88
2023-04-20T02:09:28.054Z,94234.41
2023-04-20T02:11:55.017Z,94235.22
2023-04-20T02:14:22.192Z,94250.19
2023-04-20T02:16:49.063Z,94245.72
2023-04-20T02:19:16.264Z,94250.63
2023-04-20T02:21:43.405Z,94252.00
2023-04-20T02:24:10.242Z,94236.88
2023-04-20T02:26:37.114Z,94235.09
2023-04-20T02:29:03.970Z,94230.31
2023-04-20T02:31:31.137Z,94221.97
2023-04-20T02:33:58.070Z,94214.97
2023-04-20T02:36:24.948Z,94215.81
2023-04-20T02:38:51.799Z,94210.72
2023-04-20T02:41:19.020Z,94212.13
2023-04-20T02:43:45.848Z,94207.59
2023-04-20T02:46:12.732Z,94212.78
2023-04-20T02:48:39.638Z,94206.22
2023-04-20T02:51:06.545Z,94213.38
2023-04-20T02:53:33.380Z,94215.31
2023-04-20T02:56:00.422Z,94206.81
2023-04-20T02:58:27.534Z,94199.69
2023-04-20T03:01:00.852Z,94185.97
2023-04-20T03:03:29.311Z,94193.88
2023-04-20T03:05:56.843Z,94190.38
2023-04-20T03:08:23.929Z,94182.69
2023-04-20T03:10:50.786Z,94178.59
2023-04-20T03:13:17.622Z,94183.22
2023-04-20T03:15:44.527Z,94181.72
2023-04-20T03:18:11.398Z,94173.38
2023-04-20T03:20:38.212Z,94179.41
2023-04-20T03:23:05.075Z,94176.00
2023-04-20T03:25:32.445Z,94170.25
2023-04-20T03:27:59.980Z,94171.50
2023-04-20T03:30:27.064Z,94169.16
2023-04-20T03:32:53.997Z,94161.41
2023-04-20T03:35:21.209Z,94174.81
2023-04-20T03:37:48.063Z,94168.22
2023-04-20T03:40:15.180Z,94165.63
2023-04-20T03:42:42.034Z,94167.69
2023-04-20T03:45:09.656Z,94153.53
2023-04-20T03:47:36.512Z,94152.19
2023-04-20T03:50:04.442Z,94154.53
2023-04-20T03:52:31.250Z,94158.06
2023-04-20T03:54:58.098Z,94156.72
2023-04-20T03:57:25.064Z,94159.25
2023-04-20T03:59:51.935Z,94165.03
2023-04-20T04:02:18.920Z,94156.66
2023-04-20T04:04:46.160Z,94145.84
2023-04-20T04:07:13.067Z,94147.91
2023-04-20T04:09:39.982Z,94143.38
2023-04-20T04:12:07.342Z,94146.13
2023-04-20T04:14:35.409Z,94146.38
2023-04-20T04:17:02.353Z,94133.84
2023-04-20T04:19:29.201Z,94145.75
2023-04-20T04:21:56.100Z,94152.19
2023-04-20T04:24:23.204Z,94146.69
2023-04-20T04:26:50.058Z,94146.94
2023-04-20T04:29:17.183Z,94142.06
2023-04-20T04:31:44.260Z,94138.63
2023-04-20T04:34:11.102Z,94146.97
2023-04-20T04:36:37.980Z,94129.56
2023-04-20T04:39:04.884Z,94133.56
2023-04-20T04:41:31.719Z,94142.75
2023-04-20T04:43:59.879Z,94141.66
2023-04-20T04:46:27.883Z,94152.75
2023-04-20T04:48:56.730Z,94139.06
2023-04-20T04:51:23.591Z,94137.28
2023-04-20T04:53:50.452Z,94144.06
2023-04-20T04:56:18.703Z,94148.97
2023-04-20T04:58:48.479Z,94147.91
2023-04-20T05:01:15.305Z,94159.66
2023-04-20T05:03:42.273Z,94143.19
2023-04-20T05:06:09.273Z,94144.03
2023-04-20T05:08:36.117Z,94135.50
2023-04-20T05:11:03.048Z,94134.81
2023-04-20T05:13:29.957Z,94136.00
2023-04-20T05:15:56.847Z,94138.38
2023-04-20T05:18:23.714Z,94149.19
2023-04-20T05:20:50.524Z,94153.06
2023-04-20T05:23:17.388Z,94154.16
2023-04-20T05:25:44.458Z,94136.38
2023-04-20T05:28:11.382Z,94140.16
2023-04-20T05:30:38.278Z,94147.09
2023-04-20T05:33:06.550Z,94141.34
2023-04-20T05:35:33.470Z,94145.19
2023-04-20T05:38:02.693Z,94139.84
2023-04-20T05:40:29.633Z,94143.22
2023-04-20T05:42:56.455Z,94143.88
2023-04-20T05:45:23.427Z,94141.59
2023-04-20T05:47:57.320Z,94135.06
2023-04-20T05:50:26.066Z,94142.84
2023-04-20T05:52:53.864Z,94145.81
2023-04-20T05:55:22.899Z,94142.84
2023-04-20T05:57:52.521Z,94140.81
2023-04-20T06:00:20.525Z,94147.75
2023-04-20T06:02:48.054Z,94153.75
2023-04-20T06:05:15.380Z,94137.88
2023-04-20T06:07:42.359Z,94142.22
2023-04-20T06:10:09.697Z,94141.31
2023-04-20T06:12:36.563Z,94142.31
2023-04-20T06:15:05.041Z,94131.59
2023-04-20T06:17:32.181Z,94112.25
2023-04-20T06:19:59.149Z,94127.28
2023-04-20T06:22:26.110Z,94131.16
2023-04-20T06:24:52.940Z,94136.38
2023-04-20T06:27:19.752Z,94125.63
2023-04-20T06:29:46.600Z,94127.88
2023-04-20T06:32:13.450Z,94123.22
2023-04-20T06:34:40.270Z,94125.13
2023-04-20T06:37:07.899Z,94119.16
2023-04-20T06:39:35.845Z,94125.06
2023-04-20T06:42:02.991Z,94124.09
2023-04-20T06:44:29.883Z,94118.41
2023-04-20T06:46:56.861Z,94116.06
2023-04-20T06:49:23.817Z,94123.78
2023-04-20T06:51:50.793Z,94122.56
2023-04-20T06:54:17.802Z,94116.44
2023-04-20T06:56:44.706Z,94115.50
2023-04-20T06:59:11.538Z,94117.63
2023-04-20T07:01:38.495Z,94106.75
2023-04-20T07:04:05.522Z,94106.09
2023-04-20T07:06:32.386Z,94105.72
2023-04-20T07:08:59.235Z,94110.09
2023-04-20T07:11:26.080Z,94111.97
2023-04-20T07:13:52.936Z,94118.03
2023-04-20T07:16:19.805Z,94117.03
2023-04-20T07:18:46.728Z,94113.47
2023-04-20T07:21:15.372Z,94118.69
2023-04-20T07:23:44.803Z,94112.88
2023-04-20T07:26:12.204Z,94108.94
2023-04-20T07:28:39.064Z,94115.41
2023-04-20T07:31:06.064Z,94120.63
2023-04-20T07:33:33.001Z,94110.03
2023-04-20T07:36:00.406Z,94114.50
2023-04-20T07:38:27.515Z,94119.63
2023-04-20T07:40:54.374Z,94108.41
2023-04-20T07:43:21.182Z,94109.13
2023-04-20T07:45:48.775Z,94114.75
2023-04-20T07:48:15.718Z,94121.28
2023-04-20T07:50:42.660Z,94113.75
2023-04-20T07:53:09.589Z,94118.97
2023-04-20T07:55:36.978Z,94116.91
2023-04-20T07:58:04.216Z,94120.97
2023-04-20T08:00:31.153Z,94116.22
2023-04-20T08:02:58.235Z,94124.84
2023-04-20T08:05:25.332Z,94112.94
2023-04-20T08:07:52.335Z,94117.75
2023-04-20T08:10:19.199Z,94128.91
2023-04-20T08:12:47.242Z,94112.94
2023-04-20T08:15:14.653Z,94112.31
2023-04-20T08:17:41.734Z,94107.13
2023-04-20T08:20:10.796Z,94099.38
2023-04-20T08:22:39.157Z,94103.75
2023-04-20T08:25:06.487Z,94105.44
2023-04-20T08:27:33.394Z,94109.41
2023-04-20T08:30:00.903Z,94107.72
2023-04-20T08:32:27.890Z,94108.19
2023-04-20T08:34:56.186Z,94103.94
2023-04-20T08:37:23.422Z,94088.44
2023-04-20T08:39:50.542Z,94098.31
2023-04-20T08:42:17.531Z,94095.72
2023-04-20T08:44:44.429Z,94096.94
2023-04-20T08:47:12.191Z,94105.94
2023-04-20T08:49:40.100Z,94103.78
2023-04-20T08:52:10.920Z,94096.03
2023-04-20T08:54:46.069Z,94102.97
2023-04-20T08:57:20.045Z,94104.91
2023-04-20T08:59:47.004Z,94106.69
2023-04-20T09:02:14.595Z,94113.16
2023-04-20T09:04:41.682Z,94111.28
2023-04-20T09:07:19.766Z,94108.81
2023-04-20T09:10:00.968Z,94098.88
2023-04-20T09:12:29.295Z,94098.81
2023-04-20T09:14:56.967Z,94090.34
2023-04-20T09:17:37.733Z,94096.97
2023-04-20T09:20:08.717Z,94102.47
2023-04-20T09:22:39.020Z,94096.00
2023-04-20T09:25:20.234Z,94097.97
2023-04-20T09:27:59.261Z,94089.78
2023-04-20T09:30:40.164Z,94105.56
2023-04-20T09:33:08.690Z,94109.94
2023-04-20T09:35:36.410Z,94104.38
2023-04-20T09:38:03.237Z,94104.06
2023-04-20T09:40:30.702Z,94098.31
2023-04-20T09:43:04.426Z,94094.63
2023-04-20T09:45:32.174Z,94064.00
2023-04-20T09:47:59.836Z,94096.16
2023-04-20T09:50:38.241Z,94092.84
2023-04-20T09:53:14.060Z,94075.66
2023-04-20T09:55:46.660Z,94065.28
2023-04-20T09:58:14.043Z,94076.44
2023-04-20T10:00:42.324Z,94076.59
2023-04-20T10:03:11.303Z,94081.25
2023-04-20T10:05:40.032Z,94077.97
2023-04-20T10:08:07.704Z,94076.44
2023-04-20T10:10:49.890Z,94064.31
2023-04-20T10:13:19.767Z,94067.66
2023-04-20T10:15:46.804Z,94063.13
2023-04-20T10:18:23.071Z,94069.84
2023-04-20T10:20:51.367Z,94049.44
2023-04-20T10:23:20.153Z,94047.13
2023-04-20T10:26:01.926Z,94043.84
2023-04-20T10:28:44.567Z,94038.53
2023-04-20T10:31:14.033Z,94041.19
2023-04-20T10:33:57.471Z,94038.06
2023-04-20T10:36:29.952Z,94036.44
2023-04-20T10:38:58.256Z,94018.94
2023-04-20T10:41:25.377Z,94036.59
2023-04-20T10:43:52.426Z,94035.13
2023-04-20T10:46:23.390Z,94031.38
2023-04-20T10:49:04.266Z,94032.38
2023-04-20T10:51:31.701Z,94037.25
2023-04-20T10:54:08.888Z,94038.06
2023-04-20T10:56:44.480Z,94033.63
2023-04-20T10:59:14.301Z,94032.81
2023-04-20T11:01:42.308Z,94017.47
2023-04-20T11:04:12.853Z,94029.75
2023-04-20T11:06:42.220Z,94033.66
2023-04-20T11:09:26.792Z,94026.13
2023-04-20T11:12:04.853Z,94015.03
2023-04-20T11:14:38.501Z,94027.13
2023-04-20T11:17:06.628Z,94033.63
2023-04-20T11:19:36.108Z,94032.50
2023-04-20T11:22:06.515Z,94034.94
2023-04-20T11:24:35.133Z,94041.91
2023-04-20T11:27:04.868Z,94035.84
2023-04-20T11:29:38.333Z,94038.00
2023-04-20T11:32:10.685Z,94021.63
2023-04-20T11:34:39.915Z,94027.00
2023-04-20T11:37:13.228Z,94027.66
2023-04-20T11:39:40.375Z,94021.41
2023-04-20T11:42:07.414Z,94024.88
2023-04-20T11:44:36.862Z,94021.44
2023-04-20T11:47:04.098Z,94020.41
2023-04-20T11:49:31.109Z,94016.84
2023-04-20T11:51:57.936Z,94004.28
2023-04-20T11:54:25.508Z,94004.59
2023-04-20T11:56:52.519Z,94002.09
2023-04-20T11:59:20.548Z,94013.00
2023-04-20T12:01:48.312Z,94001.78
2023-04-20T12:04:15.901Z,94015.09
2023-04-20T12:06:43.267Z,94027.50
2023-04-20T12:09:10.141Z,94018.94
2023-04-20T12:11:37.003Z,94017.31
2023-04-20T12:14:05.231Z,93997.19
2023-04-20T12:16:32.511Z,94010.59
2023-04-20T12:18:59.569Z,94010.06
2023-04-20T12:21:27.491Z,94016.31
2023-04-20T12:23:54.449Z,93989.28
2023-04-20T12:26:22.657Z,94019.28
2023-04-20T12:28:52.279Z,94010.28
2023-04-20T12:31:19.254Z,94015.16
2023-04-20T12:33:46.145Z,94020.16
2023-04-20T12:36:13.031Z,94004.28
2023-04-20T12:38:39.910Z,94011.13
2023-04-20T12:41:06.942Z,94011.22
2023-04-20T12:43:33.905Z,94014.34
2023-04-20T12:46:00.830Z,94008.50
2023-04-20T12:48:27.704Z,94010.25
2023-04-20T12:50:54.556Z,94008.38
2023-04-20T12:53:21.398Z,94005.63
2023-04-20T12:55:49.549Z,94000.75
2023-04-20T12:58:19.946Z,94015.59
2023-04-20T13:00:46.899Z,94013.81
2023-04-20T13:03:14.019Z,94011.72
2023-04-20T13:05:41.048Z,94006.47
2023-04-20T13:08:07.891Z,94010.38
2023-04-20T13:10:36.946Z,94017.75
2023-04-20T13:13:03.842Z,94023.06
2023-04-20T13:15:39.238Z,94026.22
2023-04-20T13:18:07.190Z,94016.72
2023-04-20T13:20:34.132Z,94015.59
2023-04-20T13:23:01.665Z,94009.84
2023-04-20T13:25:33.016Z,94013.28
2023-04-20T13:28:02.193Z,94001.13
2023-04-20T13:30:29.325Z,94005.44
2023-04-20T13:32:56.619Z,94003.34
2023-04-20T13:35:24.577Z,93995.66
2023-04-20T13:37:51.793Z,94011.53
2023-04-20T13:40:18.708Z,93989.41
2023-04-20T13:42:45.620Z,93992.44
2023-04-20T13:45:13.164Z,93998.53
2023-04-20T13:47:40.645Z,93986.13
2023-04-20T13:50:09.230Z,93994.78
2023-04-20T13:52:36.325Z,93981.56
2023-04-20T13:55:03.345Z,93988.00
2023-04-20T13:57:31.806Z,93995.28
2023-04-20T14:00:01.709Z,94007.91
2023-04-20T14:02:29.873Z,94004.69
2023-04-20T14:04:57.003Z,94005.34
2023-04-20T14:07:24.145Z,94012.19
2023-04-20T14:09:52.925Z,93985.22
2023-04-20T14:12:20.116Z,94022.69
2023-04-20T14:14:46.956Z,94018.78
2023-04-20T14:17:14.550Z,94022.66
2023-04-20T14:19:41.414Z,94031.69
2023-04-20T14:22:08.259Z,94032.75
2023-04-20T14:24:35.094Z,94022.00
2023-04-20T14:27:02.181Z,94029.72
2023-04-20T14:29:29.070Z,94022.56
2023-04-20T14:31:56.012Z,94027.63
2023-04-20T14:34:22.945Z,94036.44
2023-04-20T14:36:49.876Z,94042.97
2023-04-20T14:39:20.560Z,94038.38
2023-04-20T14:41:47.429Z,94027.19
2023-04-20T14:44:14.245Z,94029.72
2023-04-20T14:46:42.653Z,94049.34
2023-04-20T14:49:10.696Z,94040.53
2023-04-20T14:51:37.597Z,94046.47
2023-04-20T14:54:04.662Z,94027.06
2023-04-20T14:56:31.938Z,94030.78
2023-04-20T14:58:59.828Z,94046.28
2023-04-20T15:01:28.093Z,94032.28
2023-04-20T15:03:55.449Z,94036.22
2023-04-20T15:06:22.679Z,94028.53
2023-04-20T15:08:49.720Z,94046.47
2023-04-20T15:11:16.602Z,94041.25
2023-04-20T15:13:43.912Z,94039.94
2023-04-20T15:16:10.880Z,94039.94
2023-04-20T15:18:37.777Z,94038.66
2023-04-20T15:21:05.456Z,94038.00
2023-04-20T15:23:32.292Z,94034.81
2023-04-20T15:25:59.283Z,94032.66
2023-04-20T15:28:26.132Z,94029.06
2023-04-20T15:30:52.957Z,94038.25
2023-04-20T15:33:20.025Z,94018.81
2023-04-20T15:35:46.904Z,94011.19
2023-04-20T15:38:13.736Z,94016.25
2023-04-20T15:40:41.648Z,94008.72
2023-04-20T15:43:08.519Z,94016.88
2023-04-20T15:45:35.886Z,94010.06
2023-04-20T15:48:02.899Z,93997.13
2023-04-20T15:50:29.919Z,93989.44
2023-04-20T15:52:56.755Z,93995.66
2023-04-20T15:55:23.731Z,94004.00
2023-04-20T15:57:50.671Z,94014.25
2023-04-20T16:00:18.227Z,94004.94
2023-04-20T16:02:45.227Z,94008.34
2023-04-20T16:05:12.118Z,93992.38
2023-04-20T16:07:39.103Z,94008.69
2023-04-20T16:10:07.442Z,94010.00
2023-04-20T16:12:34.318Z,93997.59
2023-04-20T16:15:02.516Z,94000.53
2023-04-20T16:17:29.435Z,93997.28
2023-04-20T16:19:56.403Z,93999.88
2023-04-20T16:22:23.353Z,94025.03
2023-04-20T16:24:50.283Z,94056.28
2023-04-20T16:27:17.543Z,94075.25
2023-04-20T16:29:44.915Z,94073.31
2023-04-20T16:32:12.239Z,94067.47
2023-04-20T16:34:39.049Z,94085.78
2023-04-20T16:37:06.309Z,94090.16
2023-04-20T16:39:33.146Z,94085.44
2023-04-20T16:42:00.054Z,94063.91
2023-04-20T16:44:27.106Z,94045.63
2023-04-20T16:46:54.087Z,94024.34
2023-04-20T16:49:20.957Z,94049.59
2023-04-20T16:51:48.272Z,94031.53
2023-04-20T16:54:15.219Z,94026.25
2023-04-20T16:56:42.057Z,94053.75
2023-04-20T16:59:08.919Z,94087.63
2023-04-20T17:01:35.935Z,94090.59
2023-04-20T17:04:02.989Z,94082.66
2023-04-20T17:06:30.055Z,94089.34
2023-04-20T17:09:01.544Z,94091.97
2023-04-20T17:11:28.370Z,94087.56
2023-04-20T17:13:55.231Z,94091.19
2023-04-20T17:16:22.129Z,94099.03
2023-04-20T17:18:49.046Z,94109.31
2023-04-20T17:21:15.950Z,94113.91
2023-04-20T17:23:42.892Z,94108.03
2023-04-20T17:26:09.813Z,94118.00
2023-04-20T17:28:36.680Z,94113.63
2023-04-20T17:31:03.607Z,94116.91
2023-04-20T17:33:30.884Z,94124.72
2023-04-20T17:35:57.860Z,94111.78
2023-04-20T17:38:24.663Z,94118.50
2023-04-20T17:40:51.647Z,94114.88
2023-04-20T17:43:19.128Z,94118.63
2023-04-20T17:45:50.222Z,94110.31
2023-04-20T17:48:17.143Z,94096.75
2023-04-20T17:50:51.407Z,94102.31
2023-04-20T17:53:18.266Z,94093.91
2023-04-20T17:55:45.134Z,94088.97
2023-04-20T17:58:13.107Z,94100.75
2023-04-20T18:00:40.431Z,94108.22
2023-04-20T18:03:07.467Z,94117.97
2023-04-20T18:05:34.366Z,94123.19
2023-04-20T18:08:01.246Z,94133.44
2023-04-20T18:10:28.334Z,94128.50
2023-04-20T18:12:55.699Z,94127.84
2023-04-20T18:15:22.541Z,94137.50
2023-04-20T18:17:49.712Z,94132.44
2023-04-20T18:20:16.660Z,94149.72
2023-04-20T18:22:43.556Z,94133.72
2023-04-20T18:25:10.400Z,94128.91
2023-04-20T18:27:37.965Z,94114.47
2023-04-20T18:30:05.824Z,94116.09
2023-04-20T18:32:33.253Z,94110.00
2023-04-20T18:35:00.634Z,94107.94
2023-04-20T18:37:27.523Z,94103.94
2023-04-20T18:39:54.380Z,94109.78
2023-04-20T18:42:21.365Z,94110.94
2023-04-20T18:44:49.791Z,94121.25
2023-04-20T18:47:18.867Z,94129.50
2023-04-20T18:49:45.707Z,94127.47
2023-04-20T18:52:13.002Z,94140.91
2023-04-20T18:54:40.521Z,94141.16
2023-04-20T18:57:08.083Z,94141.50
2023-04-20T18:59:35.003Z,94143.47
2023-04-20T19:02:01.932Z,94143.47
2023-04-20T19:04:30.138Z,94153.81
2023-04-20T19:06:57.069Z,94160.16
2023-04-20T19:09:24.022Z,94162.59
2023-04-20T19:11:51.304Z,94169.56
2023-04-20T19:14:18.239Z,94170.09
2023-04-20T19:16:45.338Z,94166.97
2023-04-20T19:19:12.287Z,94164.03
2023-04-20T19:21:39.224Z,94170.00
2023-04-20T19:24:06.696Z,94161.13
2023-04-20T19:26:33.535Z,94178.78
2023-04-20T19:29:00.534Z,94170.91
2023-04-20T19:31:32.363Z,94163.88
2023-04-20T19:33:59.313Z,94166.19
2023-04-20T19:36:26.152Z,94173.53
2023-04-20T19:38:52.986Z,94178.88
2023-04-20T19:41:20.083Z,94164.88
2023-04-20T19:43:46.917Z,94175.66
2023-04-20T19:46:16.864Z,94172.56
2023-04-20T19:48:44.318Z,94162.41
2023-04-20T19:51:11.945Z,94179.41
2023-04-20T19:53:38.852Z,94169.25
2023-04-20T19:56:06.645Z,94175.97
2023-04-20T19:58:33.670Z,94180.69
2023-04-20T20:01:00.577Z,94178.28
2023-04-20T20:03:27.858Z,94180.75
2023-04-20T20:05:54.865Z,94175.50
2023-04-20T20:08:21.987Z,94180.22
2023-04-20T20:10:48.908Z,94183.66
2023-04-20T20:13:16.200Z,94159.13
2023-04-20T20:15:44.724Z,94168.00
2023-04-20T20:18:12.597Z,94173.56
2023-04-20T20:20:39.608Z,94158.81
2023-04-20T20:23:06.431Z,94169.34
2023-04-20T20:25:35.131Z,94160.16
2023-04-20T20:28:02.252Z,94167.06
2023-04-20T20:30:29.767Z,94162.50
2023-04-20T20:32:59.014Z,94160.88
2023-04-20T20:35:31.756Z,94154.66
2023-04-20T20:37:59.830Z,94175.22
2023-04-20T20:40:26.733Z,94168.03
2023-04-20T20:42:54.512Z,94153.81
2023-04-20T20:45:22.069Z,94149.44
2023-04-20T20:47:49.337Z,94154.81
2023-04-20T20:50:17.316Z,94150.53
2023-04-20T20:52:44.125Z,94150.53
2023-04-20T20:55:11.307Z,94149.09
2023-04-20T20:57:38.277Z,94145.81
2023-04-20T21:00:10.434Z,94152.38
2023-04-20T21:02:37.767Z,94147.25
2023-04-20T21:05:06.003Z,94149.72
2023-04-20T21:07:32.921Z,94134.34
2023-04-20T21:09:59.769Z,94143.97
2023-04-20T21:12:26.722Z,94118.16
2023-04-20T21:14:53.694Z,94127.78
2023-04-20T21:17:20.639Z,94115.22
2023-04-20T21:19:47.572Z,94132.69
2023-04-20T21:22:14.611Z,94132.69
2023-04-20T21:24:41.507Z,94122.72
2023-04-20T21:27:08.487Z,94130.56
2023-04-20T21:29:35.408Z,94135.59
2023-04-20T21:32:02.344Z,94136.91
2023-04-20T21:34:29.389Z,94140.47
2023-04-20T21:37:03.594Z,94134.63
2023-04-20T21:39:33.602Z,94133.03
2023-04-20T21:42:01.690Z,94144.78
2023-04-20T21:44:28.572Z,94138.19
2023-04-20T21:46:55.520Z,94149.31
2023-04-20T21:49:22.414Z,94153.19
2023-04-20T21:51:49.405Z,94157.38
2023-04-20T21:54:16.282Z,94153.59
2023-04-20T21:56:43.227Z,94149.78
2023-04-20T21:59:10.162Z,94157.25
2023-04-20T22:01:37.132Z,94154.56
2023-04-20T22:04:04.932Z,94163.16
2023-04-20T22:06:35.004Z,94145.38
2023-04-20T22:09:03.411Z,94159.56
2023-04-20T22:11:30.891Z,94164.13
2023-04-20T22:13:57.830Z,94165.19
2023-04-20T22:16:25.944Z,94165.69
2023-04-20T22:18:52.822Z,94162.56
2023-04-20T22:21:19.809Z,94168.38
2023-04-20T22:23:46.651Z,94164.38
2023-04-20T22:26:13.508Z,94176.06
2023-04-20T22:28:40.386Z,94172.25
2023-04-20T22:31:07.282Z,94173.88
2023-04-20T22:33:34.224Z,94175.53
2023-04-20T22:36:01.204Z,94187.91
2023-04-20T22:38:28.239Z,94188.88
2023-04-20T22:40:55.133Z,94190.66
2023-04-20T22:43:22.073Z,94176.13
2023-04-20T22:45:49.018Z,94176.13
2023-04-20T22:48:15.911Z,94185.75
2023-04-20T22:50:42.745Z,94190.00
2023-04-20T22:53:09.631Z,94192.00
2023-04-20T22:55:36.476Z,94187.09
2023-04-20T22:58:03.336Z,94180.59
2023-04-20T23:00:30.258Z,94175.53
2023-04-20T23:02:57.313Z,94173.72
2023-04-20T23:05:24.596Z,94182.56
2023-04-20T23:07:53.984Z,94179.94
2023-04-20T23:10:21.182Z,94169.78
2023-04-20T23:12:49.166Z,94191.72
2023-04-20T23:15:16.318Z,94172.41
2023-04-20T23:17:43.451Z,94168.16
2023-04-20T23:20:14.057Z,94175.53
2023-04-20T23:22:41.197Z,94171.28
2023-04-20T23:25:09.952Z,94177.34
2023-04-20T23:27:37.110Z,94170.59
2023-04-20T23:30:04.356Z,94164.88
2023-04-20T23:32:31.552Z,94164.56
2023-04-20T23:34:58.423Z,94161.16
2023-04-20T23:37:25.272Z,94161.28
2023-04-20T23:39:52.115Z,94151.75
2023-04-20T23:42:18.952Z,94149.59
2023-04-20T23:44:45.908Z,94143.84
2023-04-20T23:47:12.778Z,94161.75
2023-04-20T23:49:39.661Z,94153.56
2023-04-20T23:52:06.782Z,94159.56
2023-04-20T23:54:33.625Z,94158.75
2023-04-20T23:57:00.468Z,94153.34
2023-04-20T23:59:27.280Z,94148.94
